Time;durP1;ratioP1;P1;durP2;ratioP2;P2;SDS_P1;SDS_P2;PMS_P1;PMS_P2;Temp;Humidity;BMP_temperature;BMP_pressure;BME280_temperature;BME280_humidity;BME280_pressure;Samples;Min_cycle;Max_cycle;Signal;HPM_P1;HPM_P2
2020/12/27 00:02:10;;;;;;;;;;;-0.70;99.90;;;;;;5030242;28;19913;-85
2020/12/27 00:04:39;;;;;;;;;;;-0.70;99.90;;;;;;5030053;28;19913;-85
2020/12/27 00:07:07;;;;;;;;;;;-0.70;99.90;;;;;;5030295;28;20551;-85
2020/12/27 00:09:32;;;;;;;;;;;-0.80;99.90;;;;;;5032484;28;20024;-85
2020/12/27 00:11:58;;;;;;;;;;;-0.70;99.90;;;;;;5029828;28;20467;-85
2020/12/27 00:14:28;;;;;;;;;;;-0.70;99.90;;;;;;5029568;28;19928;-85
2020/12/27 00:17:00;;;;;;;;;;;-0.80;99.90;;;;;;5030195;28;19913;-85
2020/12/27 00:19:26;;;;;;;;;;;-0.80;99.90;;;;;;5029826;28;20372;-85
2020/12/27 00:21:51;;;;;;;;;;;-0.80;99.90;;;;;;5030022;28;19963;-85
2020/12/27 00:24:17;;;;;;;;;;;-0.80;99.90;;;;;;5030244;28;20020;-85
2020/12/27 00:26:42;;;;;;;;;;;-0.80;99.90;;;;;;5029928;28;19917;-85
2020/12/27 00:29:08;;;;;;;;;;;-0.80;99.90;;;;;;5029800;28;20028;-84
2020/12/27 00:31:33;;;;;;;;;;;-0.80;99.90;;;;;;5029536;28;19935;-84
2020/12/27 00:33:59;;;;;;;;;;;-0.80;99.90;;;;;;5030047;28;19920;-84
2020/12/27 00:36:25;;;;;;;;;;;-0.80;99.90;;;;;;5029665;28;19971;-85
2020/12/27 00:38:50;;;;;;;;;;;-0.80;99.90;;;;;;5030192;28;19913;-84
2020/12/27 00:41:22;;;;;;;;;;;-0.80;99.90;;;;;;5029949;28;20169;-84
2020/12/27 00:43:48;;;;;;;;;;;-0.90;99.90;;;;;;5029405;28;19953;-84
2020/12/27 00:46:16;;;;;;;;;;;-0.80;99.90;;;;;;5029706;28;19920;-84
2020/12/27 00:48:46;;;;;;;;;;;-0.80;99.90;;;;;;5030074;28;20368;-85
2020/12/27 00:51:18;;;;;;;;;;;-0.80;99.90;;;;;;5029543;28;19913;-84
2020/12/27 00:53:46;;;;;;;;;;;-0.80;99.90;;;;;;5029748;28;19967;-84
2020/12/27 00:56:14;;;;;;;;;;;-0.80;99.90;;;;;;5029566;28;19971;-85
2020/12/27 00:58:40;;;;;;;;;;;-0.90;99.90;;;;;;5029487;28;19913;-85
2020/12/27 01:01:06;;;;;;;;;;;-0.90;99.90;;;;;;5029085;28;19920;-85
2020/12/27 01:03:32;;;;;;;;;;;-0.90;99.90;;;;;;5029282;28;19959;-84
2020/12/27 01:05:58;;;;;;;;;;;-0.90;99.90;;;;;;5030686;28;19920;-85
2020/12/27 01:08:26;;;;;;;;;;;-0.90;99.90;;;;;;5029031;28;19917;-85
2020/12/27 01:10:51;;;;;;;;;;;-0.90;99.90;;;;;;5029211;28;20036;-84
2020/12/27 01:13:19;;;;;;;;;;;-0.90;99.90;;;;;;5029555;28;20012;-85
2020/12/27 01:15:45;;;;;;;;;;;-0.90;99.90;;;;;;5029254;28;19921;-84
2020/12/27 01:18:11;;;;;;;;;;;-0.90;99.90;;;;;;5029158;28;19909;-85
2020/12/27 01:20:36;;;;;;;;;;;-0.90;99.90;;;;;;5030053;28;20426;-84
2020/12/27 01:23:05;;;;;;;;;;;-1.00;99.90;;;;;;5030377;28;19920;-85
2020/12/27 01:25:30;;;;;;;;;;;-1.00;99.90;;;;;;5029811;28;19960;-85
2020/12/27 01:27:58;;;;;;;;;;;-1.00;99.90;;;;;;5033046;28;19917;-85
2020/12/27 01:30:26;;;;;;;;;;;-1.00;99.90;;;;;;5033865;28;19913;-85
2020/12/27 01:32:52;;;;;;;;;;;-1.00;99.90;;;;;;5033207;28;19913;-84
2020/12/27 01:35:20;;;;;;;;;;;-1.00;99.90;;;;;;5033167;28;19931;-85
2020/12/27 01:37:46;;;;;;;;;;;-1.00;99.90;;;;;;5033052;28;19936;-84
2020/12/27 01:40:14;;;;;;;;;;;-1.00;99.90;;;;;;5032801;28;19940;-84
2020/12/27 01:42:39;;;;;;;;;;;-0.90;99.90;;;;;;5033041;28;19959;-85
2020/12/27 01:45:07;;;;;;;;;;;-0.90;99.90;;;;;;5033113;28;19917;-84
2020/12/27 01:47:34;;;;;;;;;;;-1.00;99.90;;;;;;5033818;28;19913;-85
2020/12/27 01:49:59;;;;;;;;;;;-1.00;99.90;;;;;;5032777;28;19913;-84
2020/12/27 01:52:25;;;;;;;;;;;-1.00;99.90;;;;;;5032815;28;19963;-84
2020/12/27 01:54:51;;;;;;;;;;;-1.00;99.90;;;;;;5032337;28;20422;-84
2020/12/27 01:57:19;;;;;;;;;;;-1.00;99.90;;;;;;5032293;28;20009;-84
2020/12/27 01:59:45;;;;;;;;;;;-1.00;99.90;;;;;;5132250;23;20391;-84
2020/12/27 02:02:12;;;;;;;;;;;-0.90;99.90;;;;;;5012772;28;19924;-85
2020/12/27 02:04:37;;;;;;;;;;;-0.90;99.90;;;;;;5012571;28;19916;-85
2020/12/27 02:07:05;;;;;;;;;;;-0.90;99.90;;;;;;5012472;28;20298;-85
2020/12/27 02:09:31;;;;;;;;;;;-0.90;99.90;;;;;;5021827;28;19939;-84
2020/12/27 02:12:03;;;;;;;;;;;-1.00;99.90;;;;;;5032063;28;19913;-84
2020/12/27 02:14:29;;;;;;;;;;;-0.90;99.90;;;;;;5032591;28;19917;-84
2020/12/27 02:16:57;;;;;;;;;;;-1.00;99.90;;;;;;5032526;28;19952;-84
2020/12/27 02:19:22;;;;;;;;;;;-0.90;99.90;;;;;;5032307;28;19909;-85
2020/12/27 02:21:50;;;;;;;;;;;-1.00;99.90;;;;;;5032161;28;19919;-85
2020/12/27 02:24:16;;;;;;;;;;;-0.90;99.90;;;;;;5032426;28;19909;-84
2020/12/27 02:26:54;;;;;;;;;;;-0.90;99.90;;;;;;5032166;28;19920;-84
2020/12/27 02:29:20;;;;;;;;;;;-0.90;99.90;;;;;;5032082;28;19913;-84
2020/12/27 02:31:48;;;;;;;;;;;-0.90;99.90;;;;;;5032201;28;19913;-84
2020/12/27 02:34:16;;;;;;;;;;;-1.00;99.90;;;;;;5031843;28;20267;-85
2020/12/27 02:36:42;;;;;;;;;;;-1.00;99.90;;;;;;5031545;28;19917;-84
2020/12/27 02:39:11;;;;;;;;;;;-1.00;99.90;;;;;;5031939;28;19913;-84
2020/12/27 02:41:37;;;;;;;;;;;-1.00;99.90;;;;;;5031604;28;19995;-84
2020/12/27 02:44:08;;;;;;;;;;;-0.90;99.90;;;;;;5031895;28;20055;-85
2020/12/27 02:46:36;;;;;;;;;;;-0.90;99.90;;;;;;5031712;28;19909;-84
2020/12/27 02:49:02;;;;;;;;;;;-0.80;99.90;;;;;;5031544;28;19913;-84
2020/12/27 02:51:28;;;;;;;;;;;-0.80;99.90;;;;;;5031497;28;19920;-84
2020/12/27 02:53:54;;;;;;;;;;;-0.80;99.90;;;;;;5031960;28;19913;-85
2020/12/27 02:56:24;;;;;;;;;;;-0.90;99.90;;;;;;5031346;28;19932;-85
2020/12/27 02:58:50;;;;;;;;;;;-0.80;99.90;;;;;;5031304;28;19920;-85
2020/12/27 03:01:15;;;;;;;;;;;-0.80;99.90;;;;;;5031202;28;19917;-84
2020/12/27 03:03:44;;;;;;;;;;;-0.80;99.90;;;;;;5030957;28;19913;-84
2020/12/27 03:06:10;;;;;;;;;;;-0.90;99.90;;;;;;5031583;28;19988;-85
2020/12/27 03:08:35;;;;;;;;;;;-0.90;99.90;;;;;;5029150;28;19913;-84
2020/12/27 03:11:01;;;;;;;;;;;-0.90;99.90;;;;;;5011713;28;20048;-84
2020/12/27 03:13:28;;;;;;;;;;;-0.90;99.90;;;;;;5011113;28;19913;-84
2020/12/27 03:15:54;;;;;;;;;;;-0.90;99.90;;;;;;5013053;28;19972;-84
2020/12/27 03:18:23;;;;;;;;;;;-0.80;99.90;;;;;;5012015;28;19917;-84
2020/12/27 03:20:49;;;;;;;;;;;-0.80;99.90;;;;;;5011551;28;19914;-84
2020/12/27 03:23:15;;;;;;;;;;;-0.80;99.90;;;;;;5011519;28;20372;-84
2020/12/27 03:25:41;;;;;;;;;;;-0.90;99.90;;;;;;5012388;28;19920;-84
2020/12/27 03:28:07;;;;;;;;;;;-0.90;99.90;;;;;;5010966;28;20048;-84
2020/12/27 03:30:35;;;;;;;;;;;-0.90;99.90;;;;;;5010998;28;20444;-84
2020/12/27 03:33:00;;;;;;;;;;;-0.90;99.90;;;;;;5010759;28;20135;-84
2020/12/27 03:35:28;;;;;;;;;;;-0.90;99.90;;;;;;5011458;28;20394;-84
2020/12/27 03:37:53;;;;;;;;;;;-0.90;99.90;;;;;;5010909;28;19914;-84
2020/12/27 03:40:19;;;;;;;;;;;-1.00;99.90;;;;;;5010903;28;19920;-84
2020/12/27 03:42:44;;;;;;;;;;;-0.90;99.90;;;;;;5010618;28;19920;-85
2020/12/27 03:45:10;;;;;;;;;;;-0.90;99.90;;;;;;5010813;28;19917;-85
2020/12/27 03:47:38;;;;;;;;;;;-1.00;99.90;;;;;;5011759;28;19932;-84
2020/12/27 03:50:09;;;;;;;;;;;-1.00;99.90;;;;;;5010407;28;19914;-84
2020/12/27 03:52:37;;;;;;;;;;;-1.00;99.90;;;;;;5010885;28;19918;-83
2020/12/27 03:55:05;;;;;;;;;;;-1.00;99.90;;;;;;5010735;28;19918;-84
2020/12/27 03:57:33;;;;;;;;;;;-1.00;99.90;;;;;;5010658;28;19921;-84
2020/12/27 04:00:03;;;;;;;;;;;-1.00;99.90;;;;;;5010214;28;19932;-84
2020/12/27 04:02:28;;;;;;;;;;;-1.00;99.90;;;;;;5010614;28;19965;-84
2020/12/27 04:04:54;;;;;;;;;;;-1.00;99.90;;;;;;5010465;28;19941;-84
2020/12/27 04:07:22;;;;;;;;;;;-1.00;99.90;;;;;;5010392;28;20252;-85
2020/12/27 04:09:47;;;;;;;;;;;-1.10;99.90;;;;;;5022282;28;19952;-85
2020/12/27 04:12:13;;;;;;;;;;;-1.10;99.90;;;;;;5128357;23;20384;-86
2020/12/27 04:14:39;;;;;;;;;;;-1.10;99.90;;;;;;5010345;28;20003;-88
2020/12/27 04:17:04;;;;;;;;;;;-1.10;99.90;;;;;;5265021;22;19929;-83
2020/12/27 04:19:35;;;;;;;;;;;-1.10;99.90;;;;;;5030165;28;19913;-83
2020/12/27 04:22:02;;;;;;;;;;;-1.10;99.90;;;;;;5031453;28;20295;-82
2020/12/27 04:24:33;;;;;;;;;;;-1.10;99.90;;;;;;5030184;28;19924;-82
2020/12/27 04:27:00;;;;;;;;;;;-1.10;99.90;;;;;;5031603;28;19913;-83
2020/12/27 04:29:26;;;;;;;;;;;-1.10;99.90;;;;;;5030424;28;20031;-82
2020/12/27 04:31:52;;;;;;;;;;;-1.10;99.90;;;;;;5271986;22;19975;-83
2020/12/27 04:34:20;;;;;;;;;;;-1.00;99.90;;;;;;5013321;28;19920;-83
2020/12/27 04:36:48;;;;;;;;;;;-1.10;99.90;;;;;;5013070;28;19921;-83
2020/12/27 04:39:16;;;;;;;;;;;-1.10;99.90;;;;;;5012933;28;20351;-82
2020/12/27 04:41:44;;;;;;;;;;;-1.10;99.90;;;;;;5123760;23;19933;-83
2020/12/27 04:44:10;;;;;;;;;;;-1.10;99.90;;;;;;5013107;28;20008;-84
2020/12/27 04:46:38;;;;;;;;;;;-1.20;99.90;;;;;;5013124;28;20016;-83
2020/12/27 04:49:07;;;;;;;;;;;-1.20;99.90;;;;;;5013220;28;19913;-83
2020/12/27 04:51:33;;;;;;;;;;;-1.20;99.90;;;;;;5013124;28;19913;-84
2020/12/27 04:53:58;;;;;;;;;;;-1.20;99.90;;;;;;5012974;28;19913;-84
2020/12/27 04:56:26;;;;;;;;;;;-1.30;99.90;;;;;;5013191;28;19928;-84
2020/12/27 04:58:52;;;;;;;;;;;-1.20;99.90;;;;;;5013221;28;19967;-84
2020/12/27 05:01:17;;;;;;;;;;;-1.30;99.90;;;;;;5016436;28;20016;-83
2020/12/27 05:03:43;;;;;;;;;;;-1.30;99.90;;;;;;5127633;23;20368;-84
2020/12/27 05:06:17;;;;;;;;;;;-1.40;99.90;;;;;;5017057;28;19917;-83
2020/12/27 05:08:43;;;;;;;;;;;-1.30;99.90;;;;;;5020178;28;19917;-83
2020/12/27 05:11:08;;;;;;;;;;;-1.40;99.90;;;;;;5036770;28;19913;-83
2020/12/27 05:13:36;;;;;;;;;;;-1.30;99.90;;;;;;5036563;28;20042;-83
2020/12/27 05:16:07;;;;;;;;;;;-1.30;99.90;;;;;;5036600;28;19916;-83
2020/12/27 05:18:33;;;;;;;;;;;-1.30;99.90;;;;;;5036339;28;19923;-83
2020/12/27 05:20:58;;;;;;;;;;;-1.30;99.90;;;;;;5036599;28;19912;-83
2020/12/27 05:23:24;;;;;;;;;;;-1.30;99.90;;;;;;5036604;28;19919;-83
2020/12/27 05:25:55;;;;;;;;;;;-1.40;99.90;;;;;;5036512;28;19912;-83
2020/12/27 05:28:24;;;;;;;;;;;-1.30;99.90;;;;;;5036578;28;19916;-83
2020/12/27 05:30:52;;;;;;;;;;;-1.30;99.90;;;;;;5036064;28;19956;-84
2020/12/27 05:33:20;;;;;;;;;;;-1.30;99.90;;;;;;5036140;28;19917;-83
2020/12/27 05:35:59;;;;;;;;;;;-1.30;99.90;;;;;;5035918;28;19917;-83
2020/12/27 05:38:24;;;;;;;;;;;-1.30;99.90;;;;;;5036371;28;20003;-83
2020/12/27 05:40:50;;;;;;;;;;;-1.30;99.90;;;;;;5035740;28;20011;-83
2020/12/27 05:43:16;;;;;;;;;;;-1.40;99.90;;;;;;5036158;28;20007;-82
2020/12/27 05:45:42;;;;;;;;;;;-1.40;99.90;;;;;;5036087;28;19970;-83
2020/12/27 05:48:08;;;;;;;;;;;-1.40;99.90;;;;;;5036317;28;19912;-83
2020/12/27 05:50:38;;;;;;;;;;;-1.30;99.90;;;;;;5036496;28;19913;-83
2020/12/27 05:53:14;;;;;;;;;;;-1.40;99.90;;;;;;5305284;23;19929;-82
2020/12/27 05:55:45;;;;;;;;;;;-1.30;99.90;;;;;;5033017;28;19939;-83
2020/12/27 05:58:15;;;;;;;;;;;-1.40;99.90;;;;;;5032572;28;20284;-83
2020/12/27 06:00:41;;;;;;;;;;;-1.40;99.90;;;;;;5032295;28;20429;-82
2020/12/27 06:03:16;;;;;;;;;;;-1.50;99.90;;;;;;5032447;28;19913;-83
2020/12/27 06:05:41;;;;;;;;;;;-1.40;99.90;;;;;;5032697;28;19913;-82
2020/12/27 06:08:33;;;;;;;;;;;-1.40;99.90;;;;;;5032208;28;19935;-82
2020/12/27 06:11:05;;;;;;;;;;;-1.40;99.90;;;;;;5143659;22;19929;-83
2020/12/27 06:13:42;;;;;;;;;;;-1.40;99.90;;;;;;5031678;28;20326;-83
2020/12/27 06:16:14;;;;;;;;;;;-1.30;99.90;;;;;;5032457;28;20405;-83
2020/12/27 06:18:40;;;;;;;;;;;-1.30;99.90;;;;;;5032400;28;19917;-83
2020/12/27 06:21:11;;;;;;;;;;;-1.30;99.90;;;;;;5032446;28;19956;-83
2020/12/27 06:23:37;;;;;;;;;;;-1.30;99.90;;;;;;5032363;28;19936;-83
2020/12/27 06:26:03;;;;;;;;;;;-1.30;99.90;;;;;;5032059;28;19917;-83
2020/12/27 06:28:34;;;;;;;;;;;-1.30;99.90;;;;;;5032223;28;19920;-83
2020/12/27 06:31:19;;;;;;;;;;;-1.30;99.90;;;;;;5143725;22;19941;-83
2020/12/27 06:33:46;;;;;;;;;;;-1.40;99.90;;;;;;5015634;28;20004;-83
2020/12/27 06:36:33;;;;;;;;;;;-1.30;99.90;;;;;;5125734;23;19929;-83
2020/12/27 06:38:59;;;;;;;;;;;-1.30;99.90;;;;;;5033257;28;19917;-83
2020/12/27 06:41:27;;;;;;;;;;;-1.30;99.90;;;;;;5015546;28;19916;-83
2020/12/27 06:43:53;;;;;;;;;;;-1.30;99.90;;;;;;5015403;28;20304;-83
2020/12/27 06:46:20;;;;;;;;;;;-1.30;99.90;;;;;;5015292;28;20325;-83
2020/12/27 06:48:45;;;;;;;;;;;-1.20;99.90;;;;;;5015147;28;19940;-83
2020/12/27 06:51:33;;;;;;;;;;;-1.20;99.90;;;;;;5015418;28;19955;-83
2020/12/27 06:53:58;;;;;;;;;;;-1.10;99.90;;;;;;5015011;28;19913;-83
2020/12/27 06:56:35;;;;;;;;;;;-1.10;99.90;;;;;;5014809;28;19928;-83
2020/12/27 06:59:06;;;;;;;;;;;-1.10;99.90;;;;;;5014977;28;20373;-83
2020/12/27 07:01:34;;;;;;;;;;;-1.10;99.90;;;;;;5014825;28;19917;-82
2020/12/27 07:04:11;;;;;;;;;;;-1.10;99.90;;;;;;5014941;28;19913;-83
2020/12/27 07:06:45;;;;;;;;;;;-1.00;99.90;;;;;;5014866;28;19920;-83
2020/12/27 07:09:10;;;;;;;;;;;-1.00;99.90;;;;;;5021577;28;19917;-83
2020/12/27 07:11:39;;;;;;;;;;;-1.00;99.90;;;;;;5034820;28;19913;-83
2020/12/27 07:14:08;;;;;;;;;;;-1.00;99.90;;;;;;5034792;28;20375;-83
2020/12/27 07:16:48;;;;;;;;;;;-1.00;99.90;;;;;;5052186;28;19927;-83
2020/12/27 07:19:17;;;;;;;;;;;-1.00;99.90;;;;;;5008273;28;19913;-83
2020/12/27 07:21:47;;;;;;;;;;;-0.90;99.90;;;;;;5006013;28;20012;-83
2020/12/27 07:24:15;;;;;;;;;;;-0.90;99.90;;;;;;5002507;28;19964;-82
2020/12/27 07:26:46;;;;;;;;;;;-0.90;99.90;;;;;;5006277;28;19917;-83
2020/12/27 07:31:49;;;;;;;;;;;-0.90;99.90;;;;;;5050405;22;19966;-83
2020/12/27 07:34:15;;;;;;;;;;;-0.90;99.90;;;;;;5057889;28;19952;-82
2020/12/27 07:36:40;;;;;;;;;;;-0.90;99.90;;;;;;5034329;28;19967;-83
2020/12/27 07:39:07;;;;;;;;;;;-0.90;99.90;;;;;;5033545;28;19913;-83
2020/12/27 07:41:43;;;;;;;;;;;-0.90;99.90;;;;;;5033580;28;19923;-83
2020/12/27 07:44:15;;;;;;;;;;;-0.90;99.90;;;;;;5033655;28;20380;-83
2020/12/27 07:46:41;;;;;;;;;;;-0.90;99.90;;;;;;5033273;28;19913;-83
2020/12/27 07:49:07;;;;;;;;;;;-0.90;99.90;;;;;;5032955;28;20003;-83
2020/12/27 07:51:33;;;;;;;;;;;-0.90;99.90;;;;;;5032655;28;19920;-83
2020/12/27 07:53:58;;;;;;;;;;;-0.80;99.90;;;;;;5032859;28;19917;-83
2020/12/27 07:56:30;;;;;;;;;;;-0.80;99.90;;;;;;5130477;23;19929;-82
2020/12/27 07:58:58;;;;;;;;;;;-0.80;99.90;;;;;;5013362;28;19948;-82
2020/12/27 08:01:27;;;;;;;;;;;-0.80;99.90;;;;;;5013637;28;19917;-82
2020/12/27 08:03:56;;;;;;;;;;;-0.80;99.90;;;;;;5012755;28;19917;-85
2020/12/27 08:06:41;;;;;;;;;;;-0.80;99.90;;;;;;5013344;28;19917;-85
2020/12/27 08:09:11;;;;;;;;;;;-0.70;99.90;;;;;;5012852;28;19914;-83
2020/12/27 08:11:40;;;;;;;;;;;-0.70;99.90;;;;;;5012927;28;19920;-85
2020/12/27 08:14:07;;;;;;;;;;;-0.70;99.90;;;;;;5015504;28;19956;-84
2020/12/27 08:16:33;;;;;;;;;;;-0.70;99.90;;;;;;5030530;28;19929;-85
2020/12/27 08:19:02;;;;;;;;;;;-0.70;99.90;;;;;;5012974;28;19986;-84
2020/12/27 08:21:27;;;;;;;;;;;-0.70;99.90;;;;;;5012825;28;20012;-85
2020/12/27 08:24:00;;;;;;;;;;;-0.70;99.90;;;;;;5013030;28;20043;-84
2020/12/27 08:26:26;;;;;;;;;;;-0.60;99.90;;;;;;5012762;28;19913;-84
2020/12/27 08:29:09;;;;;;;;;;;-0.60;99.90;;;;;;5012803;28;19913;-84
2020/12/27 08:31:34;;;;;;;;;;;-0.50;99.90;;;;;;5012720;28;19920;-84
2020/12/27 08:34:16;;;;;;;;;;;-0.50;99.90;;;;;;5030374;28;19913;-85
2020/12/27 08:37:07;;;;;;;;;;;-0.40;99.90;;;;;;5011031;28;19947;-84
2020/12/27 08:40:02;;;;;;;;;;;-0.40;99.90;;;;;;4985169;28;19940;-84
2020/12/27 08:46:03;;;;;;;;;;;;;;;;;;;;;
2020/12/27 08:49:01;;;;;;;;;;;;;;;;;;;;;
2020/12/27 08:51:33;;;;;;;;;;;-0.10;99.90;;;;;;5024145;28;19920;-85
2020/12/27 08:54:03;;;;;;;;;;;-0.10;99.60;;;;;;5011935;28;19917;-84
2020/12/27 08:56:29;;;;;;;;;;;-0.10;99.70;;;;;;5135025;22;19925;-85
2020/12/27 08:58:58;;;;;;;;;;;0.00;99.00;;;;;;5021803;28;19926;-85
2020/12/27 09:01:28;;;;;;;;;;;0.00;99.90;;;;;;5023769;28;19914;-85
2020/12/27 09:03:56;;;;;;;;;;;0.00;98.90;;;;;;5020145;28;19919;-85
2020/12/27 09:06:24;;;;;;;;;;;0.00;98.50;;;;;;5021894;28;19917;-82
2020/12/27 09:09:15;;;;;;;;;;;0.10;98.40;;;;;;5021224;28;20453;-83
2020/12/27 09:11:44;;;;;;;;;;;0.10;99.30;;;;;;5017043;28;20491;-83
2020/12/27 09:14:27;;;;;;;;;;;0.20;98.50;;;;;;5015366;28;19919;-85
2020/12/27 09:16:57;;;;;;;;;;;0.20;99.90;;;;;;5035910;28;19999;-85
2020/12/27 09:19:22;;;;;;;;;;;0.20;99.90;;;;;;5024382;28;19918;-85
2020/12/27 09:21:53;;;;;;;;;;;0.20;99.40;;;;;;5019808;28;20369;-86
2020/12/27 09:24:21;;;;;;;;;;;0.20;99.40;;;;;;5019081;28;19953;-85
2020/12/27 09:26:46;;;;;;;;;;;0.30;97.80;;;;;;5018769;28;20052;-85
2020/12/27 09:29:16;;;;;;;;;;;0.30;97.30;;;;;;5018948;28;20000;-85
2020/12/27 09:31:42;;;;;;;;;;;0.40;96.30;;;;;;5016926;28;19967;-86
2020/12/27 09:34:07;;;;;;;;;;;0.50;96.80;;;;;;5018611;28;19913;-85
2020/12/27 09:36:35;;;;;;;;;;;0.50;97.60;;;;;;5016697;28;19918;-85
2020/12/27 09:39:01;;;;;;;;;;;0.50;96.40;;;;;;5023086;28;19921;-85
2020/12/27 09:41:29;;;;;;;;;;;0.60;95.90;;;;;;5024106;28;20288;-85
2020/12/27 09:43:58;;;;;;;;;;;0.60;95.50;;;;;;5018839;28;19921;-85
2020/12/27 09:46:43;;;;;;;;;;;0.70;96.00;;;;;;5017653;28;19914;-86
2020/12/27 09:49:14;;;;;;;;;;;0.70;96.10;;;;;;5018162;28;19941;-83
2020/12/27 09:51:40;;;;;;;;;;;0.80;96.00;;;;;;5026734;28;19967;-83
2020/12/27 09:54:08;;;;;;;;;;;0.90;96.00;;;;;;5021456;28;20040;-83
2020/12/27 09:56:41;;;;;;;;;;;0.90;97.10;;;;;;5021314;28;19917;-84
2020/12/27 09:59:09;;;;;;;;;;;1.00;95.10;;;;;;5021541;28;19979;-83
2020/12/27 10:01:35;;;;;;;;;;;1.00;96.30;;;;;;5012497;28;20393;-83
2020/12/27 10:04:03;;;;;;;;;;;1.00;96.50;;;;;;5012570;28;19918;-86
2020/12/27 10:06:30;;;;;;;;;;;1.10;95.30;;;;;;5012897;28;20438;-86
2020/12/27 10:08:56;;;;;;;;;;;1.10;96.40;;;;;;5013073;28;20008;-86
2020/12/27 10:11:26;;;;;;;;;;;1.20;96.20;;;;;;5012629;28;20012;-85
2020/12/27 10:13:52;;;;;;;;;;;1.20;95.00;;;;;;5012108;28;19913;-86
2020/12/27 10:16:19;;;;;;;;;;;1.30;95.10;;;;;;5012411;28;19925;-86
2020/12/27 10:18:46;;;;;;;;;;;1.40;94.60;;;;;;5012583;28;20353;-86
2020/12/27 10:21:14;;;;;;;;;;;1.40;94.60;;;;;;5012485;28;20355;-87
2020/12/27 10:23:42;;;;;;;;;;;1.30;94.00;;;;;;5013364;28;19914;-86
2020/12/27 10:26:13;;;;;;;;;;;1.40;92.90;;;;;;5012246;28;20015;-86
2020/12/27 10:28:39;;;;;;;;;;;1.50;93.20;;;;;;5012365;28;19913;-86
2020/12/27 10:31:10;;;;;;;;;;;1.50;93.00;;;;;;5011872;28;20392;-86
2020/12/27 10:33:38;;;;;;;;;;;1.50;92.10;;;;;;5012454;28;20342;-86
2020/12/27 10:36:06;;;;;;;;;;;1.60;92.40;;;;;;5012044;28;20370;-84
2020/12/27 10:38:33;;;;;;;;;;;1.60;92.40;;;;;;5012436;28;20018;-86
2020/12/27 10:41:03;;;;;;;;;;;1.60;91.80;;;;;;5012394;28;19913;-86
2020/12/27 10:43:28;;;;;;;;;;;1.60;91.40;;;;;;5012124;28;19916;-86
2020/12/27 10:46:01;;;;;;;;;;;1.60;91.10;;;;;;5011996;28;19913;-83
2020/12/27 10:48:27;;;;;;;;;;;1.60;89.90;;;;;;5011774;28;20387;-83
2020/12/27 10:50:53;;;;;;;;;;;1.60;90.70;;;;;;5011860;28;19966;-83
2020/12/27 10:53:21;;;;;;;;;;;1.50;89.20;;;;;;5012092;28;19959;-85
2020/12/27 10:55:50;;;;;;;;;;;1.50;91.40;;;;;;5011320;28;20020;-84
2020/12/27 10:58:18;;;;;;;;;;;1.50;91.70;;;;;;5011229;28;19925;-83
2020/12/27 11:00:44;;;;;;;;;;;1.50;91.20;;;;;;5011559;28;19913;-84
2020/12/27 11:03:09;;;;;;;;;;;1.40;92.50;;;;;;5011733;28;19916;-83
2020/12/27 11:05:38;;;;;;;;;;;1.40;92.90;;;;;;5011486;28;19913;-83
2020/12/27 11:08:05;;;;;;;;;;;1.40;91.80;;;;;;5011960;28;20551;-86
2020/12/27 11:10:30;;;;;;;;;;;1.40;93.20;;;;;;5011786;28;19914;-85
2020/12/27 11:12:56;;;;;;;;;;;1.50;91.70;;;;;;5011727;28;19920;-83
2020/12/27 11:15:22;;;;;;;;;;;1.50;90.90;;;;;;5011320;28;19928;-84
2020/12/27 11:17:48;;;;;;;;;;;1.50;91.50;;;;;;5011070;28;20383;-84
2020/12/27 11:20:13;;;;;;;;;;;1.40;91.50;;;;;;5011292;28;19920;-86
2020/12/27 11:22:43;;;;;;;;;;;1.40;91.30;;;;;;5011509;28;19913;-84
2020/12/27 11:25:15;;;;;;;;;;;1.40;91.60;;;;;;5011079;28;19913;-83
2020/12/27 11:27:42;;;;;;;;;;;1.40;91.00;;;;;;5010990;28;19922;-83
2020/12/27 11:30:10;;;;;;;;;;;1.40;91.30;;;;;;5010814;28;19960;-83
2020/12/27 11:32:37;;;;;;;;;;;1.40;91.60;;;;;;5011034;28;20015;-83
2020/12/27 11:35:04;;;;;;;;;;;1.40;93.30;;;;;;5011123;28;20351;-85
2020/12/27 11:37:31;;;;;;;;;;;1.50;92.00;;;;;;5011170;28;19920;-84
2020/12/27 11:43:00;;;;;;;;;;;1.50;92.70;;;;;;5039282;23;20036;-83
2020/12/27 11:45:25;;;;;;;;;;;1.40;92.30;;;;;;5030325;28;19984;-84
2020/12/27 11:47:53;;;;;;;;;;;1.40;93.70;;;;;;5030215;28;19913;-83
2020/12/27 11:50:19;;;;;;;;;;;1.40;93.20;;;;;;5030327;28;20019;-83
2020/12/27 11:52:44;;;;;;;;;;;1.50;94.90;;;;;;5030490;28;20467;-83
2020/12/27 11:55:10;;;;;;;;;;;1.50;94.10;;;;;;5031398;28;19927;-82
2020/12/27 11:57:40;;;;;;;;;;;1.50;94.90;;;;;;5030653;28;19923;-83
2020/12/27 12:00:08;;;;;;;;;;;1.60;93.80;;;;;;5030696;28;20321;-85
2020/12/27 12:02:33;;;;;;;;;;;1.60;92.80;;;;;;5030569;28;19962;-85
2020/12/27 12:04:59;;;;;;;;;;;1.60;93.50;;;;;;5030872;28;19917;-83
2020/12/27 12:07:24;;;;;;;;;;;1.60;94.00;;;;;;5030421;28;20071;-83
2020/12/27 12:09:50;;;;;;;;;;;1.70;95.10;;;;;;5029129;28;20386;-82
2020/12/27 12:12:15;;;;;;;;;;;1.70;96.60;;;;;;5021535;28;20333;-82
2020/12/27 12:14:41;;;;;;;;;;;1.70;96.30;;;;;;5043842;28;20300;-83
2020/12/27 12:17:07;;;;;;;;;;;1.70;94.10;;;;;;5029815;28;19917;-82
2020/12/27 12:19:33;;;;;;;;;;;1.80;96.10;;;;;;5029943;28;20436;-83
2020/12/27 12:21:58;;;;;;;;;;;1.70;94.30;;;;;;5030227;28;19914;-83
2020/12/27 12:24:24;;;;;;;;;;;1.70;95.60;;;;;;5021320;28;19917;-83
2020/12/27 12:26:53;;;;;;;;;;;1.70;96.70;;;;;;5220163;22;19957;31
2020/12/27 12:29:23;;;;;;;;;;;1.70;96.30;;;;;;5005664;28;19929;-85
2020/12/27 12:31:49;;;;;;;;;;;1.80;96.00;;;;;;5007806;28;20000;-85
2020/12/27 12:34:17;;;;;;;;;;;1.80;95.10;;;;;;5010280;28;19964;-85
2020/12/27 12:36:46;;;;;;;;;;;1.80;94.80;;;;;;5008937;28;20012;-85
2020/12/27 12:39:15;;;;;;;;;;;1.90;95.90;;;;;;5003570;28;19921;-84
2020/12/27 12:41:43;;;;;;;;;;;1.90;93.80;;;;;;5008952;28;19914;-85
2020/12/27 12:44:08;;;;;;;;;;;1.90;95.80;;;;;;5006821;28;19914;-85
2020/12/27 12:46:34;;;;;;;;;;;1.90;96.60;;;;;;5007837;28;19921;-85
2020/12/27 12:48:59;;;;;;;;;;;1.90;96.10;;;;;;5009825;28;19913;-84
2020/12/27 12:51:25;;;;;;;;;;;1.90;95.40;;;;;;5009426;28;20004;-84
2020/12/27 12:53:50;;;;;;;;;;;1.90;94.40;;;;;;5009485;28;19973;-86
2020/12/27 12:56:19;;;;;;;;;;;2.00;95.90;;;;;;5009685;28;19918;-84
2020/12/27 12:58:44;;;;;;;;;;;2.00;95.20;;;;;;5006480;28;20373;-84
2020/12/27 13:01:11;;;;;;;;;;;2.00;95.30;;;;;;5006470;28;19917;-85
2020/12/27 13:03:42;;;;;;;;;;;2.00;94.50;;;;;;5006483;28;19910;-85
2020/12/27 13:06:08;;;;;;;;;;;2.00;96.30;;;;;;5006878;28;19913;-85
2020/12/27 13:08:33;;;;;;;;;;;2.00;96.00;;;;;;5007921;28;19914;-85
2020/12/27 13:10:59;;;;;;;;;;;1.90;97.10;;;;;;5009930;28;19914;-84
2020/12/27 13:13:24;;;;;;;;;;;1.90;96.50;;;;;;5009652;28;19921;-85
2020/12/27 13:15:52;;;;;;;;;;;1.90;96.40;;;;;;5011266;28;19917;-85
2020/12/27 13:18:17;;;;;;;;;;;1.90;96.30;;;;;;5009509;28;19917;-84
2020/12/27 13:20:45;;;;;;;;;;;2.00;96.70;;;;;;5010162;28;20320;-85
2020/12/27 13:23:11;;;;;;;;;;;1.90;96.10;;;;;;5013346;28;19925;-84
2020/12/27 13:25:36;;;;;;;;;;;1.90;95.70;;;;;;5013512;28;19918;-84
2020/12/27 13:28:02;;;;;;;;;;;1.90;95.90;;;;;;5013291;28;19930;-85
2020/12/27 13:42:50;;;;;;;;;;;2.00;97.60;;;;;;4950240;28;1356184;-84
2020/12/27 13:45:15;;;;;;;;;;;2.00;97.60;;;;;;5017469;28;19914;-84
2020/12/27 13:47:41;;;;;;;;;;;1.90;97.40;;;;;;5033529;28;19916;-85
2020/12/27 13:50:07;;;;;;;;;;;2.00;98.00;;;;;;5015206;28;19917;-84
2020/12/27 13:52:34;;;;;;;;;;;2.00;96.90;;;;;;5008051;28;19914;-84
2020/12/27 13:55:00;;;;;;;;;;;2.00;97.30;;;;;;5003795;28;19917;-86
2020/12/27 13:57:25;;;;;;;;;;;1.90;96.50;;;;;;4998131;28;19921;-85
2020/12/27 13:59:51;;;;;;;;;;;1.90;96.10;;;;;;4997692;28;20253;-85
2020/12/27 14:02:21;;;;;;;;;;;1.90;97.20;;;;;;5010534;28;20288;-85
2020/12/27 14:04:47;;;;;;;;;;;1.90;96.80;;;;;;4983905;28;19953;-85
2020/12/27 14:07:15;;;;;;;;;;;1.90;98.10;;;;;;5128655;22;19957;-85
2020/12/27 14:09:40;;;;;;;;;;;1.90;98.60;;;;;;5002007;28;19914;-85
2020/12/27 14:12:08;;;;;;;;;;;1.90;99.50;;;;;;5015959;28;19916;-85
2020/12/27 14:14:34;;;;;;;;;;;1.90;97.00;;;;;;5001948;28;19910;-85
2020/12/27 14:16:59;;;;;;;;;;;2.00;96.70;;;;;;5007323;28;19916;-85
2020/12/27 14:19:25;;;;;;;;;;;1.90;96.90;;;;;;4996336;28;19909;-85
2020/12/27 14:21:52;;;;;;;;;;;1.80;97.60;;;;;;5002181;28;19913;-84
2020/12/27 14:24:18;;;;;;;;;;;1.80;97.40;;;;;;5006698;28;20312;-85
2020/12/27 14:26:45;;;;;;;;;;;1.90;99.10;;;;;;5009795;28;19960;-85
2020/12/27 14:29:11;;;;;;;;;;;1.90;96.50;;;;;;4993570;28;20281;-85
2020/12/27 14:31:39;;;;;;;;;;;1.90;98.00;;;;;;5107494;23;20693;-83
2020/12/27 14:34:05;;;;;;;;;;;1.80;96.90;;;;;;5029945;28;20253;-83
2020/12/27 14:36:31;;;;;;;;;;;1.80;97.20;;;;;;5026176;28;20047;-83
2020/12/27 14:38:59;;;;;;;;;;;1.80;98.40;;;;;;5034453;28;20360;-83
2020/12/27 14:41:25;;;;;;;;;;;1.80;97.60;;;;;;5028477;28;19909;-83
2020/12/27 14:43:50;;;;;;;;;;;1.90;98.00;;;;;;5035095;28;19909;-83
2020/12/27 14:46:18;;;;;;;;;;;1.90;96.70;;;;;;5035176;28;20411;-82
2020/12/27 14:48:52;;;;;;;;;;;1.90;98.20;;;;;;5035698;28;19909;-84
2020/12/27 14:51:25;;;;;;;;;;;1.90;97.60;;;;;;5035045;28;19992;-83